Time;durP1;ratioP1;P1;durP2;ratioP2;P2;SDS_P1;SDS_P2;PMS_P1;PMS_P2;Temp;Humidity;BMP_temperature;BMP_pressure;BME280_temperature;BME280_humidity;BME280_pressure;Samples;Min_cycle;Max_cycle;Signal;HPM_P1;HPM_P2
2023/01/11 00:03:11;;;;;;;2.80;2.30;;;16.00;56.10;;;;;;222893;1269;22640;-47
2023/01/11 00:08:18;;;;;;;2.90;2.60;;;16.00;56.00;;;;;;222368;1269;22633;-48
2023/01/11 00:13:22;;;;;;;3.20;2.70;;;16.10;55.90;;;;;;222496;1269;22535;-48
2023/01/11 00:18:26;;;;;;;2.70;2.50;;;16.10;56.10;;;;;;222413;1265;22538;-47
2023/01/11 00:23:32;;;;;;;2.50;2.30;;;16.00;56.00;;;;;;222582;1269;22600;-47
2023/01/11 00:28:37;;;;;;;3.00;2.70;;;16.00;55.90;;;;;;222374;1247;25275;-44
2023/01/11 00:33:41;;;;;;;2.90;2.50;;;15.90;56.30;;;;;;222541;1269;22523;-46
2023/01/11 00:38:50;;;;;;;2.70;2.50;;;15.90;56.10;;;;;;222466;1269;23113;-46
2023/01/11 00:49:31;;;;;;;3.10;2.70;;;15.80;56.40;;;;;;221267;1275;23459;-45
2023/01/11 00:54:36;;;;;;;3.70;2.90;;;15.90;56.20;;;;;;221078;1271;22553;-48
2023/01/11 00:59:40;;;;;;;2.80;2.60;;;15.90;56.20;;;;;;221141;1275;25572;-46
2023/01/11 01:04:44;;;;;;;2.90;2.60;;;15.80;56.40;;;;;;221326;1275;22649;-45
2023/01/11 01:09:49;;;;;;;2.70;2.50;;;15.90;56.50;;;;;;221360;1271;22614;-48
2023/01/11 01:14:53;;;;;;;2.70;2.50;;;15.80;56.80;;;;;;221256;1275;24349;-47
2023/01/11 01:19:57;;;;;;;3.30;3.00;;;15.80;56.40;;;;;;221261;1275;23926;-48
2023/01/11 01:25:01;;;;;;;3.40;3.00;;;15.70;56.40;;;;;;221991;1269;22699;-46
2023/01/11 01:30:06;;;;;;;3.30;2.40;;;15.80;56.30;;;;;;222162;1269;22745;-46
2023/01/11 01:35:10;;;;;;;3.00;2.70;;;15.80;56.30;;;;;;222780;1265;24290;-46
2023/01/11 01:40:15;;;;;;;3.00;2.70;;;15.80;56.10;;;;;;222505;1247;24206;-51
2023/01/11 01:45:24;;;;;;;3.10;2.80;;;15.80;56.10;;;;;;222787;1265;22818;-46
2023/01/11 01:50:35;;;;;;;3.00;2.70;;;15.70;56.40;;;;;;222668;1269;22552;-47
2023/01/11 01:55:43;;;;;;;2.90;2.60;;;15.70;56.70;;;;;;222490;1269;24186;-46
2023/01/11 02:00:47;;;;;;;2.70;2.30;;;15.80;56.10;;;;;;222603;1269;22647;-45
2023/01/11 02:05:53;;;;;;;3.10;2.80;;;15.90;56.30;;;;;;222851;1263;22533;-47
2023/01/11 02:10:58;;;;;;;2.60;2.40;;;15.90;55.80;;;;;;222127;1269;211538;-47
2023/01/11 02:16:08;;;;;;;2.80;2.50;;;15.80;56.10;;;;;;222550;1266;22523;-50
2023/01/11 02:21:49;;;;;;;3.60;3.00;;;15.80;56.30;;;;;;222600;1265;22509;-47
2023/01/11 02:26:57;;;;;;;3.10;2.30;;;15.80;55.90;;;;;;222303;1269;23330;-47
2023/01/11 02:32:37;;;;;;;3.00;2.70;;;15.70;56.10;;;;;;222631;1269;24226;-45
2023/01/11 02:38:03;;;;;;;2.70;2.50;;;15.70;56.00;;;;;;220954;1275;23693;-46
2023/01/11 02:48:57;;;;;;;4.00;2.70;;;15.70;56.40;;;;;;221100;1273;22540;-48
2023/01/11 02:54:06;;;;;;;2.80;2.60;;;15.70;56.40;;;;;;221206;1276;22614;-44
2023/01/11 02:59:12;;;;;;;2.70;2.50;;;15.70;56.00;;;;;;221162;1274;22554;-48
2023/01/11 03:04:31;;;;;;;3.00;2.70;;;15.70;55.90;;;;;;221160;1276;23361;-47
2023/01/11 03:10:03;;;;;;;2.60;2.40;;;15.70;56.30;;;;;;221179;1276;22532;-45
2023/01/11 03:15:34;;;;;;;2.90;2.60;;;15.70;55.90;;;;;;222273;1265;22528;-47
2023/01/11 03:20:43;;;;;;;2.60;2.40;;;15.60;56.00;;;;;;222481;1265;22533;-49
2023/01/11 03:25:53;;;;;;;3.50;2.80;;;15.60;56.00;;;;;;222750;1266;22527;-47
2023/01/11 03:31:21;;;;;;;3.10;2.80;;;15.70;55.70;;;;;;222753;1269;22524;-48
2023/01/11 03:36:28;;;;;;;3.00;2.40;;;15.60;55.80;;;;;;222640;1259;23884;-48
2023/01/11 03:41:36;;;;;;;3.10;2.80;;;15.60;55.80;;;;;;222524;1269;22636;-47
2023/01/11 03:46:50;;;;;;;3.20;2.90;;;15.60;56.00;;;;;;222334;1269;22530;-46
2023/01/11 03:51:58;;;;;;;2.70;2.50;;;15.60;56.00;;;;;;222521;1268;22732;-47
2023/01/11 03:57:14;;;;;;;2.70;2.50;;;15.60;56.00;;;;;;222534;1269;22652;-46
2023/01/11 04:02:26;;;;;;;2.70;2.50;;;15.60;56.00;;;;;;222354;1263;23903;-47
2023/01/11 04:07:31;;;;;;;4.40;2.90;;;15.50;56.00;;;;;;222523;1266;22573;-46
2023/01/11 04:12:35;;;;;;;4.00;2.90;;;15.50;56.00;;;;;;222722;1265;22523;-46
2023/01/11 04:17:40;;;;;;;5.40;3.00;;;15.50;55.90;;;;;;222588;1265;22559;-48
2023/01/11 04:22:45;;;;;;;3.30;3.00;;;15.50;56.00;;;;;;222600;1269;22626;-47
2023/01/11 04:27:49;;;;;;;3.90;2.60;;;15.50;55.90;;;;;;222468;1269;22545;-47
2023/01/11 04:32:57;;;;;;;2.90;2.60;;;15.50;55.80;;;;;;222556;1268;22547;-50
2023/01/11 04:38:01;;;;;;;4.50;2.90;;;15.50;55.90;;;;;;222505;1269;25339;-47
2023/01/11 04:43:05;;;;;;;2.80;2.50;;;15.50;56.00;;;;;;222590;1269;22538;-46
2023/01/11 04:48:09;;;;;;;3.10;2.50;;;15.50;55.90;;;;;;222585;1265;22547;-46
2023/01/11 04:53:14;;;;;;;2.90;2.70;;;15.40;55.90;;;;;;222593;1269;23930;-48
2023/01/11 04:58:18;;;;;;;2.50;2.30;;;15.40;55.90;;;;;;222674;1269;22663;-46
2023/01/11 05:03:23;;;;;;;2.50;2.30;;;15.40;55.80;;;;;;222947;1269;22522;-47
2023/01/11 05:08:28;;;;;;;2.80;2.60;;;15.40;55.90;;;;;;222695;1269;22528;-48
2023/01/11 05:13:42;;;;;;;2.80;2.40;;;15.40;56.00;;;;;;222640;1265;25413;-46
2023/01/11 05:18:58;;;;;;;2.60;2.40;;;15.40;56.00;;;;;;222412;1266;22526;-47
2023/01/11 05:24:05;;;;;;;2.70;2.50;;;15.50;56.20;;;;;;222330;1262;22567;-48
2023/01/11 05:29:15;;;;;;;2.90;2.40;;;15.40;55.90;;;;;;222650;1269;25521;-47
2023/01/11 05:34:19;;;;;;;2.90;2.40;;;15.30;56.20;;;;;;222573;1269;22572;-47
2023/01/11 05:39:23;;;;;;;2.90;2.70;;;15.40;55.90;;;;;;222309;1266;22523;-48
2023/01/11 05:49:51;;;;;;;2.60;2.40;;;15.30;56.00;;;;;;222407;1269;22564;-46
2023/01/11 05:54:57;;;;;;;2.50;2.30;;;15.30;55.70;;;;;;222634;1269;22653;-45
2023/01/11 06:00:03;;;;;;;2.60;2.40;;;15.30;55.60;;;;;;222768;1266;24245;-46
2023/01/11 06:05:09;;;;;;;2.30;2.10;;;15.30;55.70;;;;;;222681;1260;23923;-51
2023/01/11 06:10:13;;;;;;;2.70;2.50;;;15.30;55.70;;;;;;222444;1269;24027;-48
2023/01/11 06:15:17;;;;;;;3.00;2.60;;;15.30;55.70;;;;;;222893;1269;22538;-46
2023/01/11 06:20:21;;;;;;;3.00;2.70;;;15.30;55.70;;;;;;222736;1266;22524;-47
2023/01/11 06:25:29;;;;;;;2.40;2.20;;;15.30;55.70;;;;;;222591;1269;22548;-47
2023/01/11 06:30:33;;;;;;;2.50;2.00;;;15.30;55.70;;;;;;222589;1269;22520;-46
2023/01/11 06:35:39;;;;;;;2.50;2.30;;;15.20;55.80;;;;;;222806;1264;22535;-48
2023/01/11 06:41:00;;;;;;;2.90;2.60;;;15.20;56.00;;;;;;222471;1267;22631;-47
2023/01/11 06:46:04;;;;;;;2.40;2.00;;;15.30;56.40;;;;;;222441;1264;22534;-47
2023/01/11 06:51:12;;;;;;;3.10;2.60;;;15.30;55.70;;;;;;222446;1269;22717;-45
2023/01/11 06:56:20;;;;;;;2.50;2.30;;;15.20;55.70;;;;;;222734;1257;22557;-45
2023/01/11 07:01:25;;;;;;;2.60;2.40;;;15.20;55.60;;;;;;222700;1269;25408;-49
2023/01/11 07:06:33;;;;;;;2.70;2.50;;;15.20;55.70;;;;;;222448;1257;22617;-47
2023/01/11 07:11:47;;;;;;;2.80;2.50;;;15.10;55.60;;;;;;222587;1267;22625;-46
2023/01/11 07:17:02;;;;;;;2.80;2.50;;;15.30;55.50;;;;;;222545;1269;22526;-47
2023/01/11 07:22:10;;;;;;;2.70;2.30;;;15.20;55.50;;;;;;222416;1269;22544;-46
2023/01/11 07:27:27;;;;;;;2.40;2.20;;;15.10;55.50;;;;;;222377;1269;22660;-46
2023/01/11 07:32:31;;;;;;;2.10;1.90;;;15.20;55.40;;;;;;222220;1267;22685;-46
2023/01/11 07:37:40;;;;;;;2.50;2.30;;;15.20;55.40;;;;;;222486;1268;22570;-49
2023/01/11 07:43:10;;;;;;;2.20;2.00;;;15.20;55.30;;;;;;222803;1269;23126;-46
2023/01/11 07:48:20;;;;;;;2.60;2.10;;;15.20;55.20;;;;;;222750;1269;25328;-46
2023/01/11 07:53:25;;;;;;;2.70;2.00;;;15.20;55.50;;;;;;222488;1269;22777;-47
2023/01/11 07:58:32;;;;;;;2.30;2.10;;;15.10;55.50;;;;;;223041;1269;22524;-50
2023/01/11 08:03:36;;;;;;;2.50;2.30;;;15.10;55.60;;;;;;222624;1263;22663;-47
2023/01/11 08:08:42;;;;;;;2.20;2.00;;;15.10;55.70;;;;;;222510;1269;22619;-46
2023/01/11 08:19:22;;;;;;;1.90;1.80;;;15.20;56.10;;;;;;222880;1269;22540;-46
2023/01/11 08:24:27;;;;;;;2.60;2.10;;;15.20;55.40;;;;;;222666;1269;22682;-45
2023/01/11 08:29:31;;;;;;;2.60;2.00;;;15.20;55.80;;;;;;222966;1267;22520;-44
2023/01/11 08:34:39;;;;;;;2.30;1.80;;;15.10;55.60;;;;;;222706;1269;22526;-45
2023/01/11 08:39:47;;;;;;;2.00;1.90;;;15.30;55.30;;;;;;222316;1269;22612;-45
2023/01/11 08:44:54;;;;;;;2.40;2.20;;;15.40;55.10;;;;;;222323;1269;25397;-45
2023/01/11 08:50:11;;;;;;;2.60;2.00;;;15.50;54.80;;;;;;222720;1269;22664;-46
2023/01/11 08:55:24;;;;;;;2.50;2.10;;;15.70;54.30;;;;;;222348;1269;24384;-47
2023/01/11 09:00:31;;;;;;;1.80;1.70;;;15.80;53.90;;;;;;222432;1266;25966;-46
2023/01/11 09:05:37;;;;;;;2.40;2.00;;;15.90;53.90;;;;;;222457;1269;22520;-46
2023/01/11 09:10:42;;;;;;;2.20;2.00;;;16.00;54.30;;;;;;222761;1269;22554;-47
2023/01/11 09:15:46;;;;;;;2.40;2.20;;;15.90;54.10;;;;;;222368;1264;22531;-47
2023/01/11 09:20:52;;;;;;;1.70;1.60;;;15.60;54.40;;;;;;222244;1261;23679;-46
2023/01/11 09:26:05;;;;;;;2.30;2.10;;;15.50;54.80;;;;;;222389;1269;24354;-46
2023/01/11 09:31:12;;;;;;;2.10;1.80;;;15.40;55.10;;;;;;222644;1266;22657;-47
2023/01/11 09:36:20;;;;;;;2.30;1.80;;;15.30;55.40;;;;;;222467;1269;22941;-48
2023/01/11 09:41:37;;;;;;;2.60;2.10;;;15.20;55.60;;;;;;222205;1263;22551;-46
2023/01/11 09:46:47;;;;;;;2.20;2.00;;;15.40;55.20;;;;;;222299;1258;22649;-47
2023/01/11 09:52:04;;;;;;;2.30;1.80;;;15.40;55.00;;;;;;222454;1269;25223;-46
2023/01/11 09:57:25;;;;;;;2.50;1.90;;;15.40;55.00;;;;;;222293;1269;24080;-47
2023/01/11 10:03:07;;;;;;;1.90;1.80;;;15.40;55.10;;;;;;222584;1262;22560;-46
2023/01/11 10:08:32;;;;;;;2.20;2.00;;;15.30;55.10;;;;;;222815;1269;22534;-47
2023/01/11 10:14:24;;;;;;;;;;;;;;;;;;;;;
2023/01/11 10:20:00;;;;;;;2.20;2.10;;;15.20;55.40;;;;;;222597;1269;22528;-46
2023/01/11 10:25:10;;;;;;;2.40;2.20;;;15.20;55.20;;;;;;222709;1269;24214;-46
2023/01/11 10:36:12;;;;;;;2.10;1.90;;;15.40;55.10;;;;;;222066;1269;24250;-45
2023/01/11 10:41:32;;;;;;;1.90;1.80;;;15.50;54.90;;;;;;222374;1269;22575;-46
2023/01/11 10:46:44;;;;;;;2.10;1.90;;;15.60;55.50;;;;;;222250;1267;22523;-46
2023/01/11 10:51:51;;;;;;;1.80;1.70;;;15.60;54.60;;;;;;222620;1269;25678;-46
2023/01/11 10:57:24;;;;;;;2.20;2.00;;;15.60;54.70;;;;;;222644;1265;26611;-49
2023/01/11 11:02:56;;;;;;;1.80;1.70;;;15.60;55.00;;;;;;222567;1262;24003;-46
2023/01/11 11:08:12;;;;;;;2.00;1.90;;;15.50;55.10;;;;;;222860;1269;22682;-46
2023/01/11 11:13:48;;;;;;;2.20;2.00;;;15.60;55.00;;;;;;222287;1269;22649;-47
2023/01/11 11:18:57;;;;;;;2.00;1.80;;;15.50;55.10;;;;;;222638;1268;22605;-45
2023/01/11 11:24:08;;;;;;;1.60;1.50;;;15.60;55.40;;;;;;222740;1269;22515;-46
2023/01/11 11:29:21;;;;;;;1.70;1.60;;;15.60;54.90;;;;;;222956;1263;22605;-47
2023/01/11 11:34:27;;;;;;;2.40;1.60;;;15.70;54.50;;;;;;222957;1265;24341;-45
2023/01/11 11:39:34;;;;;;;2.00;1.90;;;15.70;54.70;;;;;;222690;1268;25651;-46
2023/01/11 11:44:38;;;;;;;2.00;1.80;;;15.70;54.40;;;;;;222508;1269;22542;-47
2023/01/11 11:49:43;;;;;;;1.90;1.70;;;15.70;54.50;;;;;;222584;1265;22544;-47
2023/01/11 11:54:55;;;;;;;2.20;2.00;;;15.70;54.60;;;;;;222854;1268;22537;-46
2023/01/11 12:00:24;;;;;;;2.30;1.80;;;15.60;55.10;;;;;;222598;1269;22526;-46
2023/01/11 12:05:31;;;;;;;1.70;1.60;;;15.60;54.90;;;;;;222809;1262;24085;-46
2023/01/11 12:10:39;;;;;;;2.10;2.00;;;15.60;54.80;;;;;;222211;1269;22537;-47
2023/01/11 12:15:56;;;;;;;2.40;2.00;;;15.50;54.90;;;;;;222803;1262;22727;-48
2023/01/11 12:21:22;;;;;;;2.40;2.20;;;15.50;54.90;;;;;;222510;1269;22576;-46
2023/01/11 12:26:37;;;;;;;2.20;2.00;;;15.50;55.10;;;;;;223071;1266;22526;-47
2023/01/11 12:31:53;;;;;;;2.20;2.00;;;15.50;54.80;;;;;;222786;1269;22524;-47
2023/01/11 12:37:09;;;;;;;2.70;2.40;;;15.40;55.80;;;;;;222828;1269;22549;-46
2023/01/11 12:42:33;;;;;;;3.00;2.70;;;15.40;55.10;;;;;;222839;1265;22535;-46
2023/01/11 12:48:01;;;;;;;2.30;2.10;;;15.40;55.30;;;;;;222562;1269;24195;-46
2023/01/11 12:53:26;;;;;;;2.70;2.50;;;15.40;55.20;;;;;;222533;1269;22482;-46
2023/01/11 12:58:48;;;;;;;3.00;2.60;;;15.50;55.00;;;;;;222360;1265;22673;-47
2023/01/11 13:04:02;;;;;;;2.70;2.50;;;15.40;55.10;;;;;;222789;1262;22521;-46
2023/01/11 13:09:18;;;;;;;3.00;2.60;;;15.40;55.20;;;;;;222645;1269;22645;-46
2023/01/11 13:14:46;;;;;;;2.40;2.20;;;15.30;55.20;;;;;;222831;1269;24236;-48
2023/01/11 13:20:12;;;;;;;2.20;2.00;;;15.40;55.20;;;;;;222517;1269;22650;-46
2023/01/11 13:25:22;;;;;;;1.80;1.70;;;15.40;55.20;;;;;;222410;1269;22527;-45
2023/01/11 13:30:27;;;;;;;2.20;2.00;;;15.40;55.30;;;;;;222523;1265;25282;-46
2023/01/11 13:35:54;;;;;;;2.60;2.30;;;15.40;55.20;;;;;;222564;1256;22544;-47
2023/01/11 13:41:09;;;;;;;3.30;2.40;;;15.40;55.30;;;;;;222877;1262;25304;-48
2023/01/11 13:46:48;;;;;;;2.20;2.10;;;15.40;55.00;;;;;;222660;1263;23122;-46
2023/01/11 13:52:02;;;;;;;2.50;2.30;;;15.40;55.00;;;;;;221762;1265;22653;-46
2023/01/11 13:57:19;;;;;;;2.90;2.60;;;15.40;55.40;;;;;;222697;1263;22639;-45
2023/01/11 14:02:44;;;;;;;2.30;2.10;;;15.60;54.00;;;;;;222662;1262;22490;-45
2023/01/11 14:07:51;;;;;;;2.60;2.40;;;15.70;54.50;;;;;;222571;1269;283970;-46
2023/01/11 14:13:10;;;;;;;2.30;2.10;;;15.60;54.50;;;;;;222501;1265;22525;-46
2023/01/11 14:18:25;;;;;;;2.70;2.10;;;15.50;55.50;;;;;;222482;1269;22548;-47
2023/01/11 14:23:47;;;;;;;2.30;2.10;;;15.40;55.60;;;;;;222803;1260;24201;-47
2023/01/11 14:29:26;;;;;;;2.30;2.10;;;15.50;54.80;;;;;;222795;1269;22618;-44
2023/01/11 14:34:48;;;;;;;2.40;2.20;;;15.50;54.90;;;;;;222512;1262;22581;-43
2023/01/11 14:39:58;;;;;;;2.60;2.40;;;15.50;55.00;;;;;;222534;1269;22540;-46
2023/01/11 14:45:12;;;;;;;2.10;2.00;;;15.50;54.50;;;;;;222703;1269;25368;-47
2023/01/11 14:50:34;;;;;;;2.40;2.20;;;15.50;54.60;;;;;;222625;1269;25304;-47
2023/01/11 14:55:43;;;;;;;2.60;2.40;;;15.50;54.70;;;;;;222664;1269;25318;-48
2023/01/11 15:00:48;;;;;;;2.60;2.10;;;15.40;54.50;;;;;;222775;1269;25504;-45
2023/01/11 15:06:01;;;;;;;2.20;2.00;;;15.50;54.60;;;;;;222793;1269;24260;-44
2023/01/11 15:11:23;;;;;;;2.50;2.20;;;15.60;54.30;;;;;;222567;1269;22534;-47
2023/01/11 15:21:57;;;;;;;3.00;2.60;;;15.60;54.30;;;;;;222468;1269;22507;-47
2023/01/11 15:27:02;;;;;;;2.30;2.10;;;15.50;54.30;;;;;;222499;1262;22604;-48
2023/01/11 15:32:28;;;;;;;2.50;2.10;;;15.50;54.60;;;;;;222668;1269;25382;-46
2023/01/11 15:37:46;;;;;;;2.50;2.00;;;15.50;54.30;;;;;;222726;1268;23089;-48
2023/01/11 15:43:25;;;;;;;2.60;2.40;;;15.60;54.20;;;;;;222348;1256;22667;-46
2023/01/11 15:49:13;;;;;;;2.20;2.00;;;15.50;54.40;;;;;;222429;1264;25435;-48
2023/01/11 15:54:47;;;;;;;3.70;2.40;;;15.50;54.50;;;;;;222712;1269;22656;-49
2023/01/11 16:00:14;;;;;;;2.60;2.30;;;15.50;54.50;;;;;;222479;1262;22543;-46
2023/01/11 16:05:24;;;;;;;3.90;2.60;;;15.50;54.40;;;;;;222446;1265;24368;-46
2023/01/11 16:10:51;;;;;;;3.60;2.70;;;15.50;54.30;;;;;;222247;1269;22569;-47
2023/01/11 16:16:22;;;;;;;3.40;2.50;;;15.50;54.30;;;;;;222622;1269;22553;-46
2023/01/11 16:21:38;;;;;;;5.60;2.60;;;15.60;54.40;;;;;;222553;1261;23870;-47
2023/01/11 16:26:43;;;;;;;4.30;2.60;;;15.50;54.30;;;;;;222736;1269;23909;-46
2023/01/11 16:32:03;;;;;;;3.70;2.20;;;15.50;54.20;;;;;;222466;1267;22780;-46
2023/01/11 16:37:26;;;;;;;2.70;2.40;;;15.40;54.40;;;;;;222577;1262;22831;-46
2023/01/11 16:42:34;;;;;;;4.00;2.50;;;15.50;54.40;;;;;;222792;1269;22520;-45
2023/01/11 16:47:39;;;;;;;3.20;2.60;;;15.40;54.40;;;;;;222422;1269;24473;-46
2023/01/11 16:52:47;;;;;;;3.60;2.90;;;15.40;54.60;;;;;;222588;1268;25419;-44
2023/01/11 16:57:56;;;;;;;4.20;2.80;;;15.40;54.40;;;;;;222834;1268;26599;-46
2023/01/11 17:03:10;;;;;;;4.80;2.90;;;15.50;54.40;;;;;;222704;1262;22526;-46
2023/01/11 17:08:27;;;;;;;7.60;3.30;;;15.40;54.90;;;;;;222574;1269;22521;-45
2023/01/11 17:13:53;;;;;;;5.80;3.20;;;15.40;54.60;;;;;;222652;1269;25295;-46
2023/01/11 17:19:07;;;;;;;3.70;2.70;;;15.30;55.10;;;;;;222681;1269;22539;-47
2023/01/11 17:24:12;;;;;;;3.00;2.70;;;15.40;55.10;;;;;;222610;1269;24849;-46
2023/01/11 17:29:26;;;;;;;5.80;3.60;;;15.30;54.70;;;;;;222452;1259;26429;-46
2023/01/11 17:34:36;;;;;;;4.80;3.00;;;15.30;54.80;;;;;;222721;1262;22535;-45
2023/01/11 17:39:47;;;;;;;3.50;2.90;;;15.30;54.80;;;;;;222408;1270;25305;-47
2023/01/11 17:45:12;;;;;;;3.20;2.50;;;15.40;54.60;;;;;;222272;1270;24446;-46
2023/01/11 17:50:33;;;;;;;2.70;2.50;;;15.40;54.50;;;;;;222470;1269;24260;-47
2023/01/11 17:55:54;;;;;;;3.50;2.50;;;15.40;54.50;;;;;;222212;1269;24038;-45
2023/01/11 18:01:06;;;;;;;3.30;2.60;;;15.40;54.50;;;;;;222556;1266;23872;-46
2023/01/11 18:06:55;;;;;;;2.80;2.50;;;15.50;54.40;;;;;;222487;1269;24382;-45
2023/01/11 18:12:09;;;;;;;4.30;3.00;;;15.40;54.50;;;;;;221137;1271;22527;-45
2023/01/11 18:17:35;;;;;;;4.20;2.80;;;15.40;54.40;;;;;;221167;1264;22546;-47
2023/01/11 18:22:55;;;;;;;3.10;2.70;;;15.30;55.00;;;;;;221196;1271;22559;-47
2023/01/11 18:28:11;;;;;;;4.40;2.60;;;15.30;55.10;;;;;;221053;1276;24279;-46
2023/01/11 18:33:24;;;;;;;4.20;2.40;;;15.30;54.90;;;;;;221260;1276;25268;-46
2023/01/11 18:38:31;;;;;;;;;;;15.30;55.10;;;;;;221069;1276;22526;-47
2023/01/11 18:43:36;;;;;;;2.80;2.40;;;15.20;55.20;;;;;;222634;1262;22547;-46
2023/01/11 18:48:40;;;;;;;3.20;2.90;;;15.20;55.50;;;;;;222688;1262;22535;-46
2023/01/11 18:53:45;;;;;;;3.60;2.60;;;15.30;55.00;;;;;;222498;1269;22529;-46
2023/01/11 18:58:50;;;;;;;2.60;2.30;;;15.30;55.00;;;;;;222438;1269;25165;-46
2023/01/11 19:03:55;;;;;;;3.40;2.50;;;15.40;55.10;;;;;;222545;1269;24319;-49
2023/01/11 19:09:00;;;;;;;3.70;2.40;;;15.40;54.70;;;;;;222345;1269;22663;-48
2023/01/11 19:14:05;;;;;;;2.60;2.30;;;15.40;54.70;;;;;;222399;1269;24397;-46
2023/01/11 19:19:10;;;;;;;3.30;2.60;;;15.40;54.60;;;;;;222210;1269;23035;-48
2023/01/11 19:24:15;;;;;;;4.30;2.50;;;15.30;54.70;;;;;;222395;1269;23924;-46
2023/01/11 19:29:23;;;;;;;2.40;2.20;;;15.40;54.70;;;;;;222589;1269;25358;-44
2023/01/11 19:34:32;;;;;;;2.60;2.30;;;15.40;54.70;;;;;;221367;1274;25305;-49
2023/01/11 19:39:39;;;;;;;2.60;2.10;;;15.40;54.90;;;;;;221446;1268;24228;-48
2023/01/11 19:44:44;;;;;;;3.00;2.70;;;15.40;54.60;;;;;;221328;1272;25445;-47
2023/01/11 19:50:01;;;;;;;3.00;2.50;;;15.30;54.90;;;;;;221226;1274;24200;-47
2023/01/11 19:55:08;;;;;;;2.60;2.40;;;15.30;54.90;;;;;;221407;1274;24351;-48
2023/01/11 20:00:16;;;;;;;3.30;2.30;;;15.30;54.70;;;;;;222452;1269;22602;-45
2023/01/11 20:05:41;;;;;;;3.70;2.20;;;15.40;54.60;;;;;;222490;1269;24229;-48
2023/01/11 20:10:46;;;;;;;3.90;2.40;;;15.40;54.70;;;;;;222449;1257;22528;-49
2023/01/11 20:15:51;;;;;;;3.30;2.50;;;15.40;54.60;;;;;;222776;1257;25258;-45
2023/01/11 20:21:09;;;;;;;3.20;2.00;;;15.30;54.60;;;;;;222761;1265;24257;-48
2023/01/11 20:26:14;;;;;;;2.80;2.50;;;15.40;54.60;;;;;;222255;1269;25705;-47
2023/01/11 20:31:26;;;;;;;4.10;2.30;;;15.40;54.60;;;;;;222477;1262;22543;-46
2023/01/11 20:36:31;;;;;;;2.80;2.50;;;15.30;54.60;;;;;;222603;1258;22581;-44
2023/01/11 20:41:50;;;;;;;3.30;2.30;;;15.40;54.90;;;;;;222629;1262;22533;-50
2023/01/11 20:47:11;;;;;;;2.10;1.90;;;15.40;55.00;;;;;;222151;1266;22553;-47
2023/01/11 20:52:16;;;;;;;2.60;2.30;;;15.40;54.80;;;;;;222483;1265;22955;-48
2023/01/11 20:57:27;;;;;;;3.70;2.40;;;15.40;54.90;;;;;;222388;1269;22523;-46
2023/01/11 21:02:32;;;;;;;2.60;2.40;;;15.40;55.00;;;;;;222494;1262;25404;-46
2023/01/11 21:07:46;;;;;;;2.20;2.10;;;15.40;54.70;;;;;;222592;1269;24232;-46
2023/01/11 21:12:53;;;;;;;3.00;2.20;;;15.40;54.60;;;;;;222640;1265;22528;-48
2023/01/11 21:17:58;;;;;;;2.20;2.00;;;15.30;54.70;;;;;;222631;1269;22527;-46
2023/01/11 21:23:29;;;;;;;2.30;2.10;;;15.30;55.30;;;;;;222470;1262;22639;-47
2023/01/11 21:28:33;;;;;;;2.10;1.90;;;15.20;55.20;;;;;;220963;1274;22658;-46
2023/01/11 21:33:38;;;;;;;2.70;2.10;;;15.20;55.00;;;;;;221285;1276;22662;-46
2023/01/11 21:38:42;;;;;;;2.60;2.40;;;15.10;55.30;;;;;;221413;1276;24386;-47
2023/01/11 21:43:47;;;;;;;2.30;1.90;;;15.10;55.40;;;;;;221366;1276;24195;-45
2023/01/11 21:48:55;;;;;;;2.60;2.20;;;15.20;55.30;;;;;;221048;1276;23760;-45
2023/01/11 21:54:06;;;;;;;2.40;2.20;;;15.20;55.70;;;;;;221074;1276;22944;-47
2023/01/11 21:59:11;;;;;;;2.30;2.10;;;15.20;55.20;;;;;;221064;1276;22562;-48
2023/01/11 22:04:18;;;;;;;2.60;2.00;;;15.10;55.00;;;;;;221661;1269;22536;-48
2023/01/11 22:09:53;;;;;;;1.90;1.80;;;15.10;55.50;;;;;;222395;1265;22531;-46
2023/01/11 22:15:11;;;;;;;3.70;2.60;;;15.10;55.70;;;;;;222552;1263;22620;-46
2023/01/11 22:20:16;;;;;;;2.50;1.80;;;15.20;55.20;;;;;;222392;1269;22520;-45
2023/01/11 22:25:29;;;;;;;2.90;2.20;;;15.20;55.70;;;;;;222209;1265;25335;-45
2023/01/11 22:30:36;;;;;;;2.00;1.80;;;15.30;55.20;;;;;;222717;1266;25503;-48
2023/01/11 22:35:41;;;;;;;2.40;2.20;;;15.40;54.70;;;;;;222698;1269;22531;-47
2023/01/11 22:40:58;;;;;;;2.20;2.00;;;15.30;54.80;;;;;;222619;1265;25255;-47
2023/01/11 22:46:27;;;;;;;1.70;1.60;;;15.30;54.90;;;;;;222224;1269;22569;-45
2023/01/11 22:51:31;;;;;;;2.30;2.10;;;15.40;55.20;;;;;;222141;1269;25352;-47
2023/01/11 22:56:36;;;;;;;2.30;2.00;;;15.30;54.80;;;;;;222440;1268;24375;-46
2023/01/11 23:01:41;;;;;;;3.20;2.10;;;15.30;54.80;;;;;;222252;1270;22632;-46
2023/01/11 23:06:56;;;;;;;2.70;2.30;;;15.30;54.80;;;;;;222146;1269;22992;-48
2023/01/11 23:17:23;;;;;;;3.80;2.20;;;15.30;55.00;;;;;;222204;1263;24291;-46
2023/01/11 23:22:27;;;;;;;2.30;2.10;;;15.20;55.10;;;;;;222388;1266;22552;-46
2023/01/11 23:27:31;;;;;;;2.60;1.90;;;15.30;55.00;;;;;;222488;1265;22520;-46
2023/01/11 23:32:43;;;;;;;2.00;1.90;;;15.20;55.10;;;;;;222538;1269;22636;-47
2023/01/11 23:37:49;;;;;;;2.00;1.80;;;15.20;55.20;;;;;;222442;1269;25379;-46
2023/01/11 23:42:53;;;;;;;2.20;1.90;;;15.30;55.30;;;;;;222473;1265;22550;-46
2023/01/11 23:47:58;;;;;;;2.20;2.00;;;15.20;55.30;;;;;;222531;1269;25349;-45
2023/01/11 23:53:05;;;;;;;2.90;2.50;;;15.30;55.10;;;;;;222602;1269;22728;-46
2023/01/11 23:58:10;;;;;;;2.00;1.80;;;15.30;55.10;;;;;;222626;1269;22520;-45
